createdAt,value
2022-12-15T00:00:21.564Z,18.17
2022-12-15T00:03:07.374Z,12.65
2022-12-15T00:05:52.969Z,14.52
2022-12-15T00:08:38.721Z,11.00
2022-12-15T00:11:24.371Z,13.65
2022-12-15T00:14:11.479Z,18.42
2022-12-15T00:16:56.964Z,17.73
2022-12-15T00:19:42.568Z,15.70
2022-12-15T00:22:27.753Z,19.30
2022-12-15T00:25:13.405Z,19.83
2022-12-15T00:27:58.923Z,16.83
2022-12-15T00:30:49.766Z,15.85
2022-12-15T00:33:35.994Z,22.42
2022-12-15T00:36:22.154Z,18.05
2022-12-15T00:38:50.203Z,14.07
2022-12-15T00:41:19.872Z,16.52
2022-12-15T00:43:48.468Z,15.05
2022-12-15T00:46:35.537Z,19.48
2022-12-15T00:49:04.065Z,15.25
2022-12-15T00:51:49.629Z,15.50
2022-12-15T00:54:35.203Z,15.40
2022-12-15T00:57:20.986Z,14.75
2022-12-15T01:00:06.767Z,16.30
2022-12-15T01:02:53.845Z,14.80
2022-12-15T01:05:39.307Z,19.27
2022-12-15T01:08:24.634Z,15.95
2022-12-15T01:11:09.895Z,15.00
2022-12-15T01:13:55.667Z,12.95
2022-12-15T01:16:41.398Z,21.20
2022-12-15T01:19:28.549Z,17.67
2022-12-15T01:21:56.710Z,15.63
2022-12-15T01:24:25.002Z,14.30
2022-12-15T01:26:53.157Z,15.05
2022-12-15T01:29:21.366Z,12.45
2022-12-15T01:31:49.806Z,17.55
2022-12-15T01:34:22.849Z,13.32
2022-12-15T01:36:51.062Z,14.25
2022-12-15T01:39:19.233Z,10.70
2022-12-15T01:41:46.497Z,9.52
2022-12-15T01:44:24.222Z,11.32
2022-12-15T01:46:55.575Z,15.77
2022-12-15T01:52:00.029Z,10.73
2022-12-15T01:54:32.384Z,15.52
2022-12-15T01:57:04.458Z,9.13
2022-12-15T01:59:36.924Z,9.48
2022-12-15T02:02:05.632Z,10.88
2022-12-15T02:04:35.591Z,9.23
2022-12-15T02:07:03.826Z,15.25
2022-12-15T02:09:32.328Z,14.60
2022-12-15T02:12:11.283Z,13.38
2022-12-15T02:14:54.525Z,15.63
2022-12-15T02:17:36.773Z,11.90
2022-12-15T02:20:34.598Z,11.23
2022-12-15T02:23:29.236Z,13.95
2022-12-15T02:26:19.032Z,13.02
2022-12-15T02:28:59.360Z,12.88
2022-12-15T02:31:55.100Z,11.30
2022-12-15T02:34:31.723Z,10.23
2022-12-15T02:37:02.961Z,10.63
2022-12-15T02:41:59.071Z,17.13
2022-12-15T02:44:32.338Z,14.75
2022-12-15T02:47:18.396Z,11.30
2022-12-15T02:50:00.660Z,10.75
2022-12-15T02:52:48.248Z,13.32
2022-12-15T02:55:21.586Z,12.30
2022-12-15T02:57:56.988Z,13.68
2022-12-15T03:00:25.664Z,14.57
2022-12-15T03:02:57.471Z,12.50
2022-12-15T03:05:26.506Z,14.35
2022-12-15T03:07:56.154Z,14.35
2022-12-15T03:10:26.936Z,12.25
2022-12-15T03:12:55.765Z,10.15
2022-12-15T03:15:24.024Z,11.70
2022-12-15T03:17:52.546Z,11.30
2022-12-15T03:20:22.073Z,13.23
2022-12-15T03:22:50.286Z,12.70
2022-12-15T03:25:18.523Z,12.32
2022-12-15T03:27:47.662Z,10.38
2022-12-15T03:30:16.568Z,12.38
2022-12-15T03:32:44.791Z,10.00
2022-12-15T03:35:13.697Z,16.33
2022-12-15T03:37:43.838Z,11.40
2022-12-15T03:40:14.211Z,14.25
2022-12-15T03:42:51.348Z,9.57
2022-12-15T03:45:21.422Z,14.50
2022-12-15T03:47:50.507Z,10.73
2022-12-15T03:50:20.988Z,10.70
2022-12-15T03:52:53.681Z,10.73
2022-12-15T03:55:22.485Z,10.02
2022-12-15T03:57:51.120Z,9.13
2022-12-15T04:00:20.767Z,10.05
2022-12-15T04:02:50.537Z,12.43
2022-12-15T04:05:20.482Z,13.32
2022-12-15T04:07:48.601Z,11.30
2022-12-15T04:10:18.606Z,8.80
2022-12-15T04:12:46.698Z,16.75
2022-12-15T04:15:15.273Z,8.90
2022-12-15T04:17:44.016Z,17.77
2022-12-15T04:20:13.077Z,8.60
2022-12-15T04:22:43.340Z,9.90
2022-12-15T04:25:30.697Z,5.72
2022-12-15T04:28:17.919Z,13.05
2022-12-15T04:31:07.610Z,11.20
2022-12-15T04:33:54.463Z,8.30
2022-12-15T04:36:40.819Z,14.20
2022-12-15T04:39:26.706Z,12.02
2022-12-15T04:42:16.194Z,15.15
2022-12-15T04:45:03.612Z,13.07
2022-12-15T04:47:49.400Z,15.90
2022-12-15T04:50:35.341Z,15.13
2022-12-15T04:53:28.212Z,14.98
2022-12-15T04:56:18.389Z,19.63
2022-12-15T04:59:05.243Z,6.90
2022-12-15T05:01:52.685Z,12.23
2022-12-15T05:04:38.383Z,8.90
2022-12-15T05:07:24.034Z,12.32
2022-12-15T05:10:14.714Z,9.18
2022-12-15T05:13:01.771Z,9.23
2022-12-15T05:15:47.736Z,11.07
2022-12-15T05:18:34.883Z,7.82
2022-12-15T05:21:20.615Z,9.43
2022-12-15T05:24:05.857Z,7.82
2022-12-15T05:26:53.274Z,11.30
2022-12-15T05:29:39.337Z,11.02
2022-12-15T05:32:08.109Z,9.40
2022-12-15T05:34:38.544Z,14.07
2022-12-15T05:37:07.615Z,6.75
2022-12-15T05:39:35.824Z,7.65
2022-12-15T05:42:04.644Z,7.93
2022-12-15T05:44:32.800Z,11.20
2022-12-15T05:47:00.951Z,7.65
2022-12-15T05:49:29.156Z,7.32
2022-12-15T05:51:58.721Z,11.50
2022-12-15T05:54:26.830Z,10.63
2022-12-15T05:56:55.009Z,8.45
2022-12-15T05:59:23.432Z,9.10
2022-12-15T06:01:51.654Z,7.90
2022-12-15T06:04:20.069Z,9.30
2022-12-15T06:06:48.332Z,6.97
2022-12-15T06:09:17.865Z,7.60
2022-12-15T06:11:46.060Z,10.43
2022-12-15T06:14:14.307Z,10.65
2022-12-15T06:16:50.026Z,7.45
2022-12-15T06:19:20.019Z,8.80
2022-12-15T06:21:48.153Z,9.95
2022-12-15T06:24:17.784Z,5.18
2022-12-15T06:26:45.955Z,13.82
2022-12-15T06:29:18.568Z,11.48
2022-12-15T06:31:47.294Z,10.18
2022-12-15T06:34:17.768Z,10.85
2022-12-15T06:36:46.193Z,9.13
2022-12-15T06:39:16.299Z,5.95
2022-12-15T06:41:46.766Z,9.32
2022-12-15T06:44:16.221Z,12.15
2022-12-15T06:46:45.809Z,10.57
2022-12-15T06:49:14.504Z,10.93
2022-12-15T06:51:44.180Z,8.98
2022-12-15T06:54:12.695Z,7.43
2022-12-15T06:56:44.347Z,10.27
2022-12-15T06:59:14.790Z,6.50
2022-12-15T07:01:43.316Z,8.90
2022-12-15T07:04:12.097Z,8.48
2022-12-15T07:06:42.498Z,8.52
2022-12-15T07:09:16.168Z,7.43
2022-12-15T07:11:45.213Z,10.85
2022-12-15T07:14:14.770Z,8.73
2022-12-15T07:16:43.054Z,10.25
2022-12-15T07:19:13.087Z,7.30
2022-12-15T07:21:42.610Z,16.80
2022-12-15T07:24:13.099Z,10.20
2022-12-15T07:26:41.395Z,11.75
2022-12-15T07:29:09.566Z,10.82
2022-12-15T07:31:39.359Z,7.40
2022-12-15T07:34:07.798Z,8.85
2022-12-15T07:36:36.114Z,11.32
2022-12-15T07:39:05.872Z,11.65
2022-12-15T07:41:35.515Z,7.07
2022-12-15T07:44:03.649Z,8.63
2022-12-15T07:46:31.841Z,13.60
2022-12-15T07:49:01.390Z,8.55
2022-12-15T07:51:29.669Z,8.50
2022-12-15T07:53:57.887Z,12.73
2022-12-15T07:56:26.085Z,7.22
2022-12-15T07:58:54.306Z,6.82
2022-12-15T08:01:22.672Z,10.82
2022-12-15T08:03:51.138Z,10.45
2022-12-15T08:06:21.157Z,13.55
2022-12-15T08:08:50.314Z,11.23
2022-12-15T08:11:20.272Z,10.75
2022-12-15T08:14:06.212Z,9.77
2022-12-15T08:16:37.563Z,9.68
2022-12-15T08:19:06.604Z,7.90
2022-12-15T08:21:36.467Z,9.35
2022-12-15T08:24:04.947Z,5.05
2022-12-15T08:26:33.185Z,5.47
2022-12-15T08:29:48.919Z,8.18
2022-12-15T08:31:54.017Z,6.63
2022-12-15T08:34:22.722Z,9.55
2022-12-15T08:36:52.297Z,10.75
2022-12-15T08:39:20.555Z,8.70
2022-12-15T08:41:48.830Z,8.32
2022-12-15T08:44:17.459Z,7.65
2022-12-15T08:46:45.893Z,13.77
2022-12-15T08:49:18.048Z,12.00
2022-12-15T08:51:51.546Z,9.13
2022-12-15T08:54:20.717Z,6.57
2022-12-15T08:56:48.945Z,12.48
2022-12-15T08:59:17.055Z,11.55
2022-12-15T09:01:45.503Z,5.55
2022-12-15T09:04:13.936Z,14.23
2022-12-15T09:06:42.330Z,6.53
2022-12-15T09:09:14.012Z,9.68
2022-12-15T09:11:42.226Z,14.68
2022-12-15T09:14:10.544Z,9.60
2022-12-15T09:16:38.843Z,13.93
2022-12-15T09:19:08.410Z,13.32
2022-12-15T09:21:37.118Z,7.28
2022-12-15T09:24:06.105Z,6.47
2022-12-15T09:26:36.179Z,6.70
2022-12-15T09:29:04.478Z,6.95
2022-12-15T09:31:34.858Z,7.80
2022-12-15T09:34:03.959Z,11.90
2022-12-15T09:36:33.327Z,11.60
2022-12-15T09:39:03.149Z,12.20
2022-12-15T09:41:33.371Z,11.55
2022-12-15T09:44:06.160Z,11.10
2022-12-15T09:46:53.042Z,5.10
2022-12-15T09:49:36.047Z,14.75
2022-12-15T09:52:11.315Z,12.20
2022-12-15T09:54:41.982Z,8.27
2022-12-15T09:57:20.426Z,12.13
2022-12-15T10:00:03.708Z,8.75
2022-12-15T10:02:55.791Z,3.90
2022-12-15T10:06:07.184Z,12.65
2022-12-15T10:08:32.380Z,8.05
2022-12-15T10:11:02.079Z,8.27
2022-12-15T10:13:39.603Z,16.27
2022-12-15T10:16:21.852Z,17.40
2022-12-15T10:19:01.919Z,10.10
2022-12-15T10:21:33.094Z,7.95
2022-12-15T10:24:14.227Z,11.63
2022-12-15T10:26:43.958Z,7.80
2022-12-15T10:29:26.528Z,11.25
2022-12-15T10:32:01.470Z,5.80
2022-12-15T10:34:33.384Z,7.50
2022-12-15T10:37:01.673Z,5.32
2022-12-15T10:39:39.526Z,9.23
2022-12-15T10:42:21.112Z,9.52
2022-12-15T10:44:51.286Z,10.65
2022-12-15T10:47:23.968Z,11.23
2022-12-15T10:49:52.342Z,16.45
2022-12-15T10:52:25.171Z,11.20
2022-12-15T10:54:55.551Z,6.90
2022-12-15T10:57:27.988Z,5.07
2022-12-15T10:59:57.617Z,6.60
2022-12-15T11:02:37.083Z,6.50
2022-12-15T11:05:16.405Z,6.55
2022-12-15T11:07:47.660Z,9.13
2022-12-15T11:15:50.813Z,11.32
2022-12-15T11:18:34.206Z,10.13
2022-12-15T11:21:06.644Z,6.82
2022-12-15T11:23:57.250Z,10.63
2022-12-15T11:26:37.395Z,12.83
2022-12-15T11:29:16.970Z,8.65
2022-12-15T11:31:48.801Z,11.88
2022-12-15T11:34:21.820Z,9.85
2022-12-15T11:37:32.440Z,15.48
2022-12-15T11:40:28.906Z,12.95
2022-12-15T11:43:11.199Z,7.90
2022-12-15T11:45:49.000Z,12.75
2022-12-15T11:48:19.211Z,10.80
2022-12-15T11:50:55.179Z,13.52
2022-12-15T11:53:56.763Z,13.55
2022-12-15T11:56:32.555Z,11.10
2022-12-15T11:59:41.584Z,8.70
2022-12-15T12:02:37.705Z,7.75
2022-12-15T12:05:44.587Z,12.48
2022-12-15T12:08:29.346Z,15.75
2022-12-15T12:11:05.311Z,10.98
2022-12-15T12:13:45.022Z,6.55
2022-12-15T12:16:28.322Z,11.88
2022-12-15T12:19:02.935Z,12.20
2022-12-15T12:21:37.060Z,6.40
2022-12-15T12:24:15.097Z,9.00
2022-12-15T12:26:48.730Z,10.68
2022-12-15T12:29:22.806Z,7.28
2022-12-15T12:32:05.450Z,9.23
2022-12-15T12:34:52.877Z,11.48
2022-12-15T12:37:44.219Z,11.20
2022-12-15T12:40:24.030Z,13.15
2022-12-15T12:42:55.781Z,12.63
2022-12-15T12:45:30.378Z,11.40
2022-12-15T12:48:07.514Z,9.27
2022-12-15T12:50:35.991Z,17.33
2022-12-15T12:53:04.914Z,11.00
2022-12-15T12:55:41.140Z,8.52
2022-12-15T12:58:33.860Z,12.35
2022-12-15T13:01:08.479Z,17.73
2022-12-15T13:03:40.173Z,12.20
2022-12-15T13:06:22.727Z,24.38
2022-12-15T13:08:52.820Z,20.77
2022-12-15T13:11:58.144Z,11.27
2022-12-15T13:14:37.669Z,14.48
2022-12-15T13:17:28.394Z,15.10
2022-12-15T13:20:26.870Z,13.35
2022-12-15T13:22:57.113Z,15.65
2022-12-15T13:25:48.581Z,12.40
2022-12-15T13:28:46.214Z,12.23
2022-12-15T13:31:49.070Z,16.75
2022-12-15T13:34:24.280Z,10.02
2022-12-15T13:37:02.305Z,17.42
2022-12-15T13:39:51.834Z,13.18
2022-12-15T13:42:56.144Z,15.63
2022-12-15T13:45:36.750Z,10.00
2022-12-15T13:48:16.926Z,10.52
2022-12-15T13:50:53.403Z,13.07
2022-12-15T13:53:25.045Z,12.60
2022-12-15T13:56:12.263Z,10.63
2022-12-15T13:58:44.833Z,13.13
2022-12-15T14:01:27.187Z,12.82
2022-12-15T14:04:04.963Z,10.82
2022-12-15T14:06:37.317Z,14.25
2022-12-15T14:09:06.641Z,12.90
2022-12-15T14:11:52.428Z,14.10
2022-12-15T14:14:24.525Z,13.23
2022-12-15T14:16:55.759Z,14.20
2022-12-15T14:21:55.671Z,10.15
2022-12-15T14:24:45.077Z,17.05
2022-12-15T14:27:24.238Z,12.10
2022-12-15T14:30:11.553Z,12.18
2022-12-15T14:32:40.688Z,14.70
2022-12-15T14:35:15.963Z,13.07
2022-12-15T14:37:44.868Z,14.90
2022-12-15T14:40:16.429Z,9.25
2022-12-15T14:42:45.596Z,9.23
2022-12-15T14:45:21.202Z,13.73
2022-12-15T14:50:47.849Z,11.80
2022-12-15T14:53:19.550Z,11.52
2022-12-15T14:55:47.872Z,11.50
2022-12-15T14:58:32.308Z,15.55
2022-12-15T15:01:02.193Z,7.95
2022-12-15T15:03:13.457Z,10.23
2022-12-15T15:03:15.699Z,9.25
2022-12-15T15:03:38.445Z,12.80
2022-12-15T15:06:18.818Z,10.20
2022-12-15T15:08:49.005Z,8.90
2022-12-15T15:11:29.601Z,15.00
2022-12-15T15:14:05.595Z,19.33
2022-12-15T15:16:33.936Z,19.15
2022-12-15T15:19:04.611Z,14.43
2022-12-15T15:21:38.098Z,20.02
2022-12-15T15:24:23.984Z,16.55
2022-12-15T15:26:52.470Z,10.00
2022-12-15T15:29:41.963Z,18.83
2022-12-15T15:32:17.247Z,11.80
2022-12-15T15:34:47.339Z,10.15
2022-12-15T15:37:20.304Z,12.10
2022-12-15T15:39:49.934Z,12.98
2022-12-15T15:42:18.706Z,14.70
2022-12-15T15:44:47.011Z,14.88
2022-12-15T15:47:22.821Z,15.05
2022-12-15T15:49:52.181Z,9.63
2022-12-15T15:52:22.357Z,9.95
2022-12-15T15:54:51.053Z,16.38
2022-12-15T15:57:19.969Z,23.92
2022-12-15T15:59:49.578Z,14.35
2022-12-15T16:02:18.034Z,19.20
2022-12-15T16:04:46.318Z,21.20
2022-12-15T16:07:21.585Z,18.92
2022-12-15T16:09:51.357Z,15.85
2022-12-15T16:12:27.724Z,23.17
2022-12-15T16:14:56.189Z,16.63
2022-12-15T16:17:25.595Z,18.40
2022-12-15T16:19:54.034Z,23.23
2022-12-15T16:22:23.373Z,24.48
2022-12-15T16:24:53.022Z,22.27
2022-12-15T16:27:21.153Z,24.30
2022-12-15T16:29:49.421Z,22.77
2022-12-15T16:32:17.776Z,29.13
2022-12-15T16:34:45.925Z,43.47
2022-12-15T16:37:26.246Z,34.22
2022-12-15T16:39:55.933Z,27.67
2022-12-15T16:42:24.026Z,27.77
2022-12-15T16:44:52.358Z,21.95
2022-12-15T16:47:20.471Z,19.40
2022-12-15T16:49:48.664Z,21.33
2022-12-15T16:52:21.026Z,27.85
2022-12-15T16:54:50.456Z,20.52
2022-12-15T16:57:20.245Z,30.13
2022-12-15T16:59:49.964Z,23.80
2022-12-15T17:02:27.161Z,27.90
2022-12-15T17:04:56.108Z,21.15
2022-12-15T17:07:27.795Z,33.30
2022-12-15T17:09:56.624Z,19.98
2022-12-15T17:12:26.364Z,20.98
2022-12-15T17:14:54.659Z,46.88
2022-12-15T17:17:22.852Z,60.58
2022-12-15T17:20:27.580Z,39.03
2022-12-15T17:22:40.334Z,55.42
2022-12-15T17:25:16.834Z,56.42
2022-12-15T17:27:47.214Z,26.58
2022-12-15T17:30:16.933Z,47.77
2022-12-15T17:32:45.862Z,28.20
2022-12-15T17:35:14.114Z,25.73
2022-12-15T17:37:42.788Z,23.83
2022-12-15T17:40:18.918Z,29.17
2022-12-15T17:42:49.263Z,29.45
2022-12-15T17:45:21.063Z,37.80
2022-12-15T17:47:50.151Z,26.52
2022-12-15T17:50:19.078Z,22.30
2022-12-15T17:52:49.622Z,21.85
2022-12-15T17:55:21.193Z,28.23
2022-12-15T17:57:51.005Z,19.75
2022-12-15T18:00:22.825Z,28.85
2022-12-15T18:02:51.211Z,24.83
2022-12-15T18:05:20.126Z,17.35
2022-12-15T18:07:53.557Z,18.90
2022-12-15T18:10:25.857Z,16.35
2022-12-15T18:12:55.409Z,17.67
2022-12-15T18:15:25.628Z,28.88
2022-12-15T18:17:54.011Z,18.30
2022-12-15T18:20:23.015Z,27.48
2022-12-15T18:22:52.499Z,19.70
2022-12-15T18:25:23.437Z,19.55
2022-12-15T18:27:51.611Z,19.25
2022-12-15T18:30:23.415Z,25.98
2022-12-15T18:32:55.846Z,21.70
2022-12-15T18:35:31.642Z,27.70
2022-12-15T18:37:59.860Z,19.65
2022-12-15T18:40:30.179Z,26.92
2022-12-15T18:42:58.376Z,43.00
2022-12-15T18:45:28.535Z,44.35
2022-12-15T18:47:56.639Z,24.60
2022-12-15T18:50:26.639Z,23.60
2022-12-15T18:52:59.574Z,22.60
2022-12-15T18:55:31.185Z,22.13
2022-12-15T18:58:01.884Z,26.15
2022-12-15T19:00:32.561Z,23.83
2022-12-15T19:03:01.370Z,20.52
2022-12-15T19:05:30.155Z,25.75
2022-12-15T19:08:01.313Z,27.67
2022-12-15T19:10:32.024Z,26.08
2022-12-15T19:13:00.328Z,17.33
2022-12-15T19:15:28.608Z,25.13
2022-12-15T19:18:15.730Z,29.40
2022-12-15T19:21:01.688Z,42.95
2022-12-15T19:23:30.240Z,31.85
2022-12-15T19:25:58.898Z,31.88
2022-12-15T19:28:27.183Z,30.95
2022-12-15T19:30:55.500Z,34.95
2022-12-15T19:33:25.374Z,32.33
2022-12-15T19:35:55.620Z,27.27
2022-12-15T19:38:27.481Z,24.73
2022-12-15T19:40:56.781Z,26.80
2022-12-15T19:43:26.019Z,26.33
2022-12-15T19:45:55.118Z,31.02
2022-12-15T19:48:24.833Z,27.58
2022-12-15T19:50:54.913Z,26.83
2022-12-15T19:53:26.318Z,31.80
2022-12-15T19:58:30.259Z,29.02
2022-12-15T20:01:00.784Z,28.60
2022-12-15T20:03:31.839Z,34.63
2022-12-15T20:06:02.082Z,29.77
2022-12-15T20:08:34.879Z,27.67
2022-12-15T20:11:03.773Z,31.70
2022-12-15T20:13:32.503Z,27.67
2022-12-15T20:16:00.873Z,30.40
2022-12-15T20:18:31.024Z,27.98
2022-12-15T20:21:01.467Z,26.60
2022-12-15T20:23:32.232Z,31.90
2022-12-15T20:26:01.307Z,26.48
2022-12-15T20:28:31.223Z,36.17
2022-12-15T20:30:59.816Z,26.48
2022-12-15T20:33:28.872Z,27.00
2022-12-15T20:35:58.678Z,31.60
2022-12-15T20:38:30.576Z,28.38
2022-12-15T20:41:00.294Z,31.35
2022-12-15T20:43:32.177Z,33.40
2022-12-15T20:46:05.117Z,31.67
2022-12-15T20:48:35.239Z,34.88
2022-12-15T20:51:09.314Z,27.65
2022-12-15T20:53:39.145Z,24.23
2022-12-15T20:56:08.742Z,26.42
2022-12-15T20:58:39.475Z,26.52
2022-12-15T21:01:18.174Z,26.30
2022-12-15T21:03:47.280Z,29.00
2022-12-15T21:06:18.027Z,28.00
2022-12-15T21:08:46.449Z,35.28
2022-12-15T21:11:18.615Z,28.65
2022-12-15T21:13:48.280Z,28.90
2022-12-15T21:16:19.794Z,30.00
2022-12-15T21:19:19.779Z,25.00
2022-12-15T21:21:41.714Z,30.40
2022-12-15T21:24:16.663Z,30.65
2022-12-15T21:26:45.027Z,33.50
2022-12-15T21:29:14.882Z,32.92
2022-12-15T21:31:43.475Z,37.08
2022-12-15T21:34:12.834Z,32.70
2022-12-15T21:36:44.690Z,37.85
2022-12-15T21:39:16.744Z,23.20
2022-12-15T21:41:45.334Z,33.88
2022-12-15T21:44:15.238Z,35.75
2022-12-15T21:46:43.495Z,27.83
2022-12-15T21:49:20.721Z,30.80
2022-12-15T21:51:53.698Z,27.65
2022-12-15T21:54:30.652Z,27.20
2022-12-15T21:56:59.781Z,33.55
2022-12-15T21:59:30.630Z,33.88
2022-12-15T22:02:00.662Z,31.30
2022-12-15T22:04:32.731Z,39.53
2022-12-15T22:07:02.869Z,34.88
2022-12-15T22:09:31.084Z,40.75
2022-12-15T22:11:59.551Z,34.78
2022-12-15T22:14:30.644Z,34.95
2022-12-15T22:16:59.965Z,39.30
2022-12-15T22:19:28.697Z,39.05
2022-12-15T22:21:57.210Z,35.13
2022-12-15T22:24:26.760Z,41.45
2022-12-15T22:26:54.982Z,36.85
2022-12-15T22:29:24.271Z,32.63
2022-12-15T22:31:52.775Z,31.70
2022-12-15T22:34:25.033Z,38.22
2022-12-15T22:36:53.388Z,36.03
2022-12-15T22:39:23.280Z,35.88
2022-12-15T22:41:54.091Z,28.63
2022-12-15T22:44:24.939Z,33.85
2022-12-15T22:46:54.740Z,37.38
2022-12-15T22:49:26.185Z,43.13
2022-12-15T22:51:54.943Z,47.72
2022-12-15T22:54:25.375Z,40.10
2022-12-15T22:56:58.762Z,47.40
2022-12-15T22:59:31.033Z,43.80
2022-12-15T23:01:59.557Z,36.17
2022-12-15T23:04:28.002Z,41.08
2022-12-15T23:06:56.284Z,38.35
2022-12-15T23:09:24.540Z,42.83
2022-12-15T23:11:53.264Z,39.83
2022-12-15T23:14:43.667Z,24.83
2022-12-15T23:17:11.873Z,34.65
2022-12-15T23:19:44.866Z,35.38
2022-12-15T23:22:13.214Z,32.13
2022-12-15T23:24:41.561Z,40.08
2022-12-15T23:27:12.672Z,35.40
2022-12-15T23:29:41.145Z,30.45
2022-12-15T23:32:09.332Z,31.90
2022-12-15T23:34:37.586Z,39.58
2022-12-15T23:37:05.865Z,37.47
2022-12-15T23:39:34.190Z,38.45
2022-12-15T23:42:02.342Z,38.63
2022-12-15T23:44:31.958Z,38.30
2022-12-15T23:47:00.245Z,35.72
2022-12-15T23:49:28.427Z,40.70
2022-12-15T23:51:56.798Z,42.05
2022-12-15T23:54:24.966Z,44.97
2022-12-15T23:56:53.169Z,47.45
2022-12-15T23:59:22.977Z,47.33
